sensor_id;sensor_type;location;lat;lon;timestamp;pressure;altitude;pressure_sealevel;temperature;humidity
3697;BME280;60662;48.810;8.872;2023-07-31T06:08:14;96550.72;;;15.38;75.31
3697;BME280;60662;48.810;8.872;2023-07-31T06:10:43;96553.16;;;15.41;75.39
3697;BME280;60662;48.810;8.872;2023-07-31T06:13:08;96552.09;;;15.44;75.61
3697;BME280;60662;48.810;8.872;2023-07-31T06:15:38;96547.28;;;15.50;76.01
3697;BME280;60662;48.810;8.872;2023-07-31T06:18:06;96546.53;;;15.48;75.41
3697;BME280;60662;48.810;8.872;2023-07-31T06:20:52;96556.38;;;15.59;75.08
3697;BME280;60662;48.810;8.872;2023-07-31T06:21:55;96550.28;;;15.72;74.60
3697;BME280;60662;48.810;8.872;2023-07-31T06:22:56;96544.34;;;15.82;74.48
3697;BME280;60662;48.810;8.872;2023-07-31T06:23:57;96549.06;;;16.03;74.67
3697;BME280;60662;48.810;8.872;2023-07-31T06:24:59;96554.47;;;16.14;73.39
3697;BME280;60662;48.810;8.872;2023-07-31T06:27:25;96550.03;;;16.02;73.68
3697;BME280;60662;48.810;8.872;2023-07-31T06:28:28;96556.25;;;16.14;73.29
3697;BME280;60662;48.810;8.872;2023-07-31T06:29:30;96541.28;;;16.14;73.73
3697;BME280;60662;48.810;8.872;2023-07-31T06:30:32;96544.13;;;16.37;73.59
3697;BME280;60662;48.810;8.872;2023-07-31T06:31:33;96542.72;;;16.57;73.18
3697;BME280;60662;48.810;8.872;2023-07-31T06:32:35;96548.63;;;16.61;72.45
3697;BME280;60662;48.810;8.872;2023-07-31T06:33:37;96539.84;;;16.73;71.96
3697;BME280;60662;48.810;8.872;2023-07-31T06:34:38;96534.56;;;16.73;72.28
3697;BME280;60662;48.810;8.872;2023-07-31T06:35:40;96529.22;;;16.62;71.18
3697;BME280;60662;48.810;8.872;2023-07-31T06:38:02;96540.72;;;16.48;72.46
3697;BME280;60662;48.810;8.872;2023-07-31T06:39:03;96548.28;;;16.65;72.81
3697;BME280;60662;48.810;8.872;2023-07-31T06:40:06;96548.81;;;16.71;71.98
3697;BME280;60662;48.810;8.872;2023-07-31T06:42:39;96544.41;;;16.58;72.15
3697;BME280;60662;48.810;8.872;2023-07-31T06:45:27;96551.59;;;16.56;72.42
3697;BME280;60662;48.810;8.872;2023-07-31T06:48:10;96552.66;;;16.54;72.90
3697;BME280;60662;48.810;8.872;2023-07-31T06:50:51;96550.09;;;16.65;72.45
3697;BME280;60662;48.810;8.872;2023-07-31T06:51:53;96546.84;;;16.61;72.75
3697;BME280;60662;48.810;8.872;2023-07-31T06:54:32;96556.94;;;16.68;72.29
3697;BME280;60662;48.810;8.872;2023-07-31T06:55:33;96555.25;;;16.67;72.00
3697;BME280;60662;48.810;8.872;2023-07-31T06:56:35;96564.09;;;16.65;71.77
3697;BME280;60662;48.810;8.872;2023-07-31T06:57:40;96550.50;;;16.72;70.23
3697;BME280;60662;48.810;8.872;2023-07-31T06:58:42;96552.38;;;16.83;70.42
3697;BME280;60662;48.810;8.872;2023-07-31T06:59:44;96551.44;;;16.96;70.53
3697;BME280;60662;48.810;8.872;2023-07-31T07:00:46;96540.03;;;17.20;70.11
3697;BME280;60662;48.810;8.872;2023-07-31T07:01:50;96541.59;;;17.47;69.65
3697;BME280;60662;48.810;8.872;2023-07-31T07:02:51;96547.78;;;17.35;69.39
3697;BME280;60662;48.810;8.872;2023-07-31T07:03:53;96546.72;;;17.37;69.33
3697;BME280;60662;48.810;8.872;2023-07-31T07:04:54;96542.84;;;17.30;69.58
3697;BME280;60662;48.810;8.872;2023-07-31T07:05:56;96544.03;;;17.26;69.90
3697;BME280;60662;48.810;8.872;2023-07-31T07:06:57;96546.47;;;17.40;69.55
3697;BME280;60662;48.810;8.872;2023-07-31T07:07:59;96544.53;;;17.31;69.32
3697;BME280;60662;48.810;8.872;2023-07-31T07:09:01;96543.47;;;17.34;68.96
3697;BME280;60662;48.810;8.872;2023-07-31T07:10:03;96540.38;;;17.16;69.36
3697;BME280;60662;48.810;8.872;2023-07-31T07:11:05;96538.56;;;17.16;69.28
3697;BME280;60662;48.810;8.872;2023-07-31T07:12:08;96541.53;;;17.11;69.81
3697;BME280;60662;48.810;8.872;2023-07-31T07:13:11;96536.69;;;17.18;69.86
3697;BME280;60662;48.810;8.872;2023-07-31T07:14:14;96543.66;;;17.19;70.34
3697;BME280;60662;48.810;8.872;2023-07-31T07:15:16;96538.91;;;17.11;70.49
3697;BME280;60662;48.810;8.872;2023-07-31T07:16:17;96535.44;;;17.11;70.19
3697;BME280;60662;48.810;8.872;2023-07-31T07:17:19;96533.41;;;17.14;70.00
3697;BME280;60662;48.810;8.872;2023-07-31T07:18:20;96528.06;;;17.03;70.56
3697;BME280;60662;48.810;8.872;2023-07-31T07:19:22;96537.06;;;17.01;70.66
3697;BME280;60662;48.810;8.872;2023-07-31T07:20:24;96532.34;;;16.93;70.45
3697;BME280;60662;48.810;8.872;2023-07-31T07:21:25;96531.06;;;16.86;70.67
3697;BME280;60662;48.810;8.872;2023-07-31T07:22:27;96532.50;;;16.90;71.24
3697;BME280;60662;48.810;8.872;2023-07-31T07:23:29;96528.97;;;16.91;71.20
3697;BME280;60662;48.810;8.872;2023-07-31T07:24:30;96523.69;;;16.91;71.36
3697;BME280;60662;48.810;8.872;2023-07-31T07:25:32;96530.09;;;17.00;71.31
3697;BME280;60662;48.810;8.872;2023-07-31T07:26:33;96521.66;;;16.94;71.33
3697;BME280;60662;48.810;8.872;2023-07-31T07:27:35;96526.28;;;17.04;71.75
3697;BME280;60662;48.810;8.872;2023-07-31T07:28:36;96527.63;;;17.09;70.99
3697;BME280;60662;48.810;8.872;2023-07-31T07:29:38;96518.78;;;17.10;70.22
3697;BME280;60662;48.810;8.872;2023-07-31T07:30:41;96519.84;;;17.08;69.87
3697;BME280;60662;48.810;8.872;2023-07-31T07:31:42;96527.56;;;17.22;70.04
3697;BME280;60662;48.810;8.872;2023-07-31T07:32:43;96520.09;;;17.16;69.58
3697;BME280;60662;48.810;8.872;2023-07-31T07:33:45;96522.41;;;17.21;69.96
3697;BME280;60662;48.810;8.872;2023-07-31T07:34:48;96510.28;;;17.18;69.10
3697;BME280;60662;48.810;8.872;2023-07-31T07:35:49;96530.38;;;17.32;68.95
3697;BME280;60662;48.810;8.872;2023-07-31T07:36:51;96525.13;;;17.32;68.62
3697;BME280;60662;48.810;8.872;2023-07-31T07:37:52;96523.38;;;17.55;68.24
3697;BME280;60662;48.810;8.872;2023-07-31T07:38:54;96522.13;;;17.84;68.47
3697;BME280;60662;48.810;8.872;2023-07-31T07:39:56;96523.16;;;17.94;67.84
3697;BME280;60662;48.810;8.872;2023-07-31T07:40:58;96529.44;;;18.16;67.62
3697;BME280;60662;48.810;8.872;2023-07-31T07:42:00;96523.75;;;17.98;67.04
3697;BME280;60662;48.810;8.872;2023-07-31T07:43:01;96530.41;;;18.03;67.13
3697;BME280;60662;48.810;8.872;2023-07-31T07:44:03;96522.81;;;17.99;67.33
3697;BME280;60662;48.810;8.872;2023-07-31T07:45:05;96523.88;;;17.96;67.53
3697;BME280;60662;48.810;8.872;2023-07-31T07:46:06;96525.19;;;17.90;67.15
3697;BME280;60662;48.810;8.872;2023-07-31T07:47:08;96516.59;;;18.22;67.10
3697;BME280;60662;48.810;8.872;2023-07-31T07:48:09;96520.44;;;18.30;66.23
3697;BME280;60662;48.810;8.872;2023-07-31T07:49:11;96516.72;;;18.32;66.71
3697;BME280;60662;48.810;8.872;2023-07-31T07:50:13;96518.63;;;18.07;67.07
3697;BME280;60662;48.810;8.872;2023-07-31T07:51:14;96517.78;;;18.07;67.16
3697;BME280;60662;48.810;8.872;2023-07-31T07:52:16;96516.94;;;18.06;67.29
3697;BME280;60662;48.810;8.872;2023-07-31T07:53:17;96521.03;;;17.99;66.92
3697;BME280;60662;48.810;8.872;2023-07-31T07:54:19;96521.25;;;18.07;67.21
3697;BME280;60662;48.810;8.872;2023-07-31T07:55:22;96522.59;;;18.02;67.18
3697;BME280;60662;48.810;8.872;2023-07-31T07:56:25;96525.69;;;17.95;66.67
3697;BME280;60662;48.810;8.872;2023-07-31T07:57:27;96519.94;;;18.13;66.74
3697;BME280;60662;48.810;8.872;2023-07-31T07:58:29;96516.47;;;18.13;66.36
3697;BME280;60662;48.810;8.872;2023-07-31T07:59:31;96520.94;;;18.23;66.27
3697;BME280;60662;48.810;8.872;2023-07-31T08:00:32;96523.06;;;18.52;66.17
3697;BME280;60662;48.810;8.872;2023-07-31T08:01:34;96522.72;;;18.57;66.68
3697;BME280;60662;48.810;8.872;2023-07-31T08:02:35;96519.94;;;18.58;66.14
3697;BME280;60662;48.810;8.872;2023-07-31T08:03:37;96525.00;;;18.84;65.13
3697;BME280;60662;48.810;8.872;2023-07-31T08:04:38;96518.38;;;18.79;65.14
3697;BME280;60662;48.810;8.872;2023-07-31T08:05:40;96523.19;;;18.62;65.14
3697;BME280;60662;48.810;8.872;2023-07-31T08:06:41;96525.50;;;18.67;65.24
3697;BME280;60662;48.810;8.872;2023-07-31T08:07:43;96523.81;;;18.54;65.76
3697;BME280;60662;48.810;8.872;2023-07-31T08:08:44;96514.66;;;18.47;65.54
3697;BME280;60662;48.810;8.872;2023-07-31T08:09:46;96519.34;;;18.43;65.85
3697;BME280;60662;48.810;8.872;2023-07-31T08:10:47;96517.09;;;18.50;66.05
3697;BME280;60662;48.810;8.872;2023-07-31T08:11:49;96509.75;;;18.31;65.27
3697;BME280;60662;48.810;8.872;2023-07-31T08:12:51;96510.59;;;18.32;66.48
3697;BME280;60662;48.810;8.872;2023-07-31T08:13:52;96506.25;;;18.08;65.54
3697;BME280;60662;48.810;8.872;2023-07-31T08:14:54;96509.75;;;18.20;67.01
3697;BME280;60662;48.810;8.872;2023-07-31T08:15:55;96516.47;;;18.24;66.70
3697;BME280;60662;48.810;8.872;2023-07-31T08:16:57;96509.50;;;18.11;66.11
3697;BME280;60662;48.810;8.872;2023-07-31T08:17:58;96506.63;;;18.15;66.15
3697;BME280;60662;48.810;8.872;2023-07-31T08:19:00;96508.41;;;18.14;66.52
3697;BME280;60662;48.810;8.872;2023-07-31T08:20:02;96505.28;;;18.09;66.39
3697;BME280;60662;48.810;8.872;2023-07-31T08:21:03;96501.06;;;17.95;67.20
3697;BME280;60662;48.810;8.872;2023-07-31T08:22:05;96506.19;;;17.85;66.55
3697;BME280;60662;48.810;8.872;2023-07-31T08:23:06;96502.56;;;17.75;67.05
3697;BME280;60662;48.810;8.872;2023-07-31T08:24:08;96505.94;;;17.77;67.45
3697;BME280;60662;48.810;8.872;2023-07-31T08:25:09;96508.34;;;17.91;67.83
3697;BME280;60662;48.810;8.872;2023-07-31T08:26:18;96507.41;;;17.92;67.24
3697;BME280;60662;48.810;8.872;2023-07-31T08:27:20;96509.66;;;17.86;67.08
3697;BME280;60662;48.810;8.872;2023-07-31T08:28:22;96502.34;;;17.78;67.56
3697;BME280;60662;48.810;8.872;2023-07-31T08:29:23;96509.44;;;17.89;67.55
3697;BME280;60662;48.810;8.872;2023-07-31T08:30:25;96509.44;;;17.89;67.56
3697;BME280;60662;48.810;8.872;2023-07-31T08:31:27;96513.38;;;17.83;67.51
3697;BME280;60662;48.810;8.872;2023-07-31T08:32:30;96497.75;;;17.80;67.82
3697;BME280;60662;48.810;8.872;2023-07-31T08:33:32;96499.56;;;17.79;67.90
3697;BME280;60662;48.810;8.872;2023-07-31T08:34:33;96502.56;;;17.75;67.83
3697;BME280;60662;48.810;8.872;2023-07-31T08:35:35;96502.97;;;17.93;67.95
3697;BME280;60662;48.810;8.872;2023-07-31T08:36:36;96500.94;;;17.97;67.71
3697;BME280;60662;48.810;8.872;2023-07-31T08:37:38;96493.88;;;18.08;68.06
3697;BME280;60662;48.810;8.872;2023-07-31T08:38:40;96499.66;;;18.14;67.51
3697;BME280;60662;48.810;8.872;2023-07-31T08:39:41;96503.13;;;18.03;67.53
3697;BME280;60662;48.810;8.872;2023-07-31T08:40:43;96498.56;;;18.16;67.40
3697;BME280;60662;48.810;8.872;2023-07-31T08:41:44;96490.66;;;18.16;67.67
3697;BME280;60662;48.810;8.872;2023-07-31T08:42:47;96489.81;;;18.16;67.56
3697;BME280;60662;48.810;8.872;2023-07-31T08:43:50;96493.03;;;18.31;67.56
3697;BME280;60662;48.810;8.872;2023-07-31T08:44:53;96491.97;;;18.33;66.78
3697;BME280;60662;48.810;8.872;2023-07-31T08:45:56;96497.50;;;18.19;67.28
3697;BME280;60662;48.810;8.872;2023-07-31T08:46:58;96495.69;;;18.19;67.41
3697;BME280;60662;48.810;8.872;2023-07-31T08:47:59;96487.06;;;18.17;66.92
3697;BME280;60662;48.810;8.872;2023-07-31T08:49:04;96498.91;;;18.11;66.92
3697;BME280;60662;48.810;8.872;2023-07-31T08:50:07;96500.88;;;18.21;67.45
3697;BME280;60662;48.810;8.872;2023-07-31T08:51:08;96492.09;;;18.20;67.67
3697;BME280;60662;48.810;8.872;2023-07-31T08:52:10;96501.94;;;18.18;66.82
3697;BME280;60662;48.810;8.872;2023-07-31T08:53:12;96496.91;;;18.26;66.90
3697;BME280;60662;48.810;8.872;2023-07-31T08:54:13;96496.16;;;18.36;66.47
3697;BME280;60662;48.810;8.872;2023-07-31T08:55:15;96495.47;;;18.22;66.52
3697;BME280;60662;48.810;8.872;2023-07-31T08:56:16;96484.53;;;18.16;66.19
3697;BME280;60662;48.810;8.872;2023-07-31T08:57:19;96491.72;;;18.02;66.83
3697;BME280;60662;48.810;8.872;2023-07-31T08:58:20;96501.34;;;18.15;66.72
3697;BME280;60662;48.810;8.872;2023-07-31T08:59:23;96480.91;;;18.17;67.06
3697;BME280;60662;48.810;8.872;2023-07-31T09:00:25;96468.56;;;18.17;66.91
3697;BME280;60662;48.810;8.872;2023-07-31T09:01:29;96471.81;;;18.21;67.58
3697;BME280;60662;48.810;8.872;2023-07-31T09:02:38;96474.19;;;18.24;66.03
3697;BME280;60662;48.810;8.872;2023-07-31T09:03:41;96468.56;;;18.28;66.44
3697;BME280;60662;48.810;8.872;2023-07-31T09:04:43;96472.16;;;18.27;66.47
3697;BME280;60662;48.810;8.872;2023-07-31T09:05:46;96476.00;;;18.23;66.36
3697;BME280;60662;48.810;8.872;2023-07-31T09:06:48;96470.59;;;18.36;67.21
3697;BME280;60662;48.810;8.872;2023-07-31T09:07:51;96475.50;;;18.41;66.99
3697;BME280;60662;48.810;8.872;2023-07-31T09:08:52;96468.66;;;18.38;67.24
3697;BME280;60662;48.810;8.872;2023-07-31T09:09:54;96474.53;;;18.42;66.60
3697;BME280;60662;48.810;8.872;2023-07-31T09:10:59;96469.25;;;18.31;66.93
3697;BME280;60662;48.810;8.872;2023-07-31T09:12:01;96480.91;;;18.28;67.54
3697;BME280;60662;48.810;8.872;2023-07-31T09:13:03;96479.00;;;18.30;67.30
3697;BME280;60662;48.810;8.872;2023-07-31T09:14:05;96481.63;;;18.41;67.91
3697;BME280;60662;48.810;8.872;2023-07-31T09:15:11;96475.75;;;18.38;67.45
3697;BME280;60662;48.810;8.872;2023-07-31T09:16:28;96478.88;;;18.43;67.34
3697;BME280;60662;48.810;8.872;2023-07-31T09:17:33;96468.28;;;18.43;66.86
3697;BME280;60662;48.810;8.872;2023-07-31T09:18:55;96480.19;;;18.49;66.31
3697;BME280;60662;48.810;8.872;2023-07-31T09:19:58;96470.69;;;18.46;66.65
3697;BME280;60662;48.810;8.872;2023-07-31T09:21:13;96464.09;;;18.52;66.79
3697;BME280;60662;48.810;8.872;2023-07-31T09:22:15;96474.38;;;18.66;66.93
3697;BME280;60662;48.810;8.872;2023-07-31T09:23:16;96472.00;;;18.63;65.91
3697;BME280;60662;48.810;8.872;2023-07-31T09:24:28;96457.97;;;18.51;65.65
3697;BME280;60662;48.810;8.872;2023-07-31T09:25:31;96470.63;;;18.80;66.31
3697;BME280;60662;48.810;8.872;2023-07-31T09:26:34;96475.81;;;18.82;65.31
3697;BME280;60662;48.810;8.872;2023-07-31T09:28:49;96462.81;;;18.79;65.04
3697;BME280;60662;48.810;8.872;2023-07-31T09:30:00;96460.94;;;19.13;65.46
3697;BME280;60662;48.810;8.872;2023-07-31T09:31:02;96465.31;;;19.35;64.34
3697;BME280;60662;48.810;8.872;2023-07-31T09:32:03;96456.34;;;19.48;63.02
3697;BME280;60662;48.810;8.872;2023-07-31T09:33:06;96449.22;;;19.90;62.20
3697;BME280;60662;48.810;8.872;2023-07-31T09:34:09;96448.84;;;19.95;63.01
3697;BME280;60662;48.810;8.872;2023-07-31T09:35:19;96448.69;;;20.18;62.87
3697;BME280;60662;48.810;8.872;2023-07-31T09:36:25;96446.28;;;19.84;61.90
3697;BME280;60662;48.810;8.872;2023-07-31T09:37:29;96455.13;;;19.94;62.08
3697;BME280;60662;48.810;8.872;2023-07-31T09:38:30;96451.09;;;19.79;61.64
3697;BME280;60662;48.810;8.872;2023-07-31T09:39:32;96440.97;;;19.63;62.18
3697;BME280;60662;48.810;8.872;2023-07-31T09:40:35;96441.84;;;19.73;61.26
3697;BME280;60662;48.810;8.872;2023-07-31T09:41:39;96439.53;;;20.01;60.83
3697;BME280;60662;48.810;8.872;2023-07-31T09:42:40;96440.63;;;20.29;59.63
3697;BME280;60662;48.810;8.872;2023-07-31T09:43:53;96440.28;;;20.53;58.98
3697;BME280;60662;48.810;8.872;2023-07-31T09:45:06;96437.09;;;20.69;57.78
3697;BME280;60662;48.810;8.872;2023-07-31T09:46:13;96431.44;;;21.03;57.84
3697;BME280;60662;48.810;8.872;2023-07-31T09:47:22;96431.59;;;21.12;57.36
3697;BME280;60662;48.810;8.872;2023-07-31T09:48:28;96426.16;;;21.23;57.65
3697;BME280;60662;48.810;8.872;2023-07-31T09:49:29;96432.69;;;21.19;56.76
3697;BME280;60662;48.810;8.872;2023-07-31T09:50:31;96427.13;;;21.22;57.14
3697;BME280;60662;48.810;8.872;2023-07-31T09:51:32;96429.50;;;21.25;56.97
3697;BME280;60662;48.810;8.872;2023-07-31T09:52:39;96422.50;;;21.24;57.20
3697;BME280;60662;48.810;8.872;2023-07-31T09:53:41;96429.38;;;21.17;56.63
3697;BME280;60662;48.810;8.872;2023-07-31T09:54:50;96424.84;;;20.78;57.41
3697;BME280;60662;48.810;8.872;2023-07-31T09:55:52;96428.44;;;20.58;57.98
3697;BME280;60662;48.810;8.872;2023-07-31T09:56:56;96410.94;;;20.35;58.46
3697;BME280;60662;48.810;8.872;2023-07-31T09:58:04;96427.72;;;20.46;58.62
3697;BME280;60662;48.810;8.872;2023-07-31T09:59:07;96421.44;;;20.47;59.03
3697;BME280;60662;48.810;8.872;2023-07-31T10:00:10;96420.34;;;20.69;59.08
3697;BME280;60662;48.810;8.872;2023-07-31T10:01:12;96425.34;;;20.52;59.09
3697;BME280;60662;48.810;8.872;2023-07-31T10:02:20;96420.88;;;20.43;59.53
3697;BME280;60662;48.810;8.872;2023-07-31T10:03:22;96418.50;;;20.50;59.65
3697;BME280;60662;48.810;8.872;2023-07-31T10:04:27;96425.00;;;20.77;59.00
3697;BME280;60662;48.810;8.872;2023-07-31T10:05:33;96422.66;;;20.93;57.93
3697;BME280;60662;48.810;8.872;2023-07-31T10:06:36;96418.31;;;20.82;57.97
3697;BME280;60662;48.810;8.872;2023-07-31T10:07:39;96420.25;;;21.00;56.62
3697;BME280;60662;48.810;8.872;2023-07-31T10:08:44;96406.31;;;20.98;57.50
3697;BME280;60662;48.810;8.872;2023-07-31T10:09:48;96413.44;;;21.07;57.26
3697;BME280;60662;48.810;8.872;2023-07-31T10:10:51;96417.06;;;21.16;57.19
3697;BME280;60662;48.810;8.872;2023-07-31T10:11:59;96417.06;;;21.06;57.81
3697;BME280;60662;48.810;8.872;2023-07-31T10:13:02;96412.88;;;21.03;57.67
3697;BME280;60662;48.810;8.872;2023-07-31T10:14:05;96416.63;;;21.01;58.53
3697;BME280;60662;48.810;8.872;2023-07-31T10:15:08;96411.31;;;20.91;57.93
3697;BME280;60662;48.810;8.872;2023-07-31T10:16:10;96407.84;;;20.71;58.11
3697;BME280;60662;48.810;8.872;2023-07-31T10:17:13;96406.28;;;21.08;57.78
3697;BME280;60662;48.810;8.872;2023-07-31T10:18:16;96403.22;;;21.22;58.27
3697;BME280;60662;48.810;8.872;2023-07-31T10:19:20;96401.13;;;21.55;57.87
3697;BME280;60662;48.810;8.872;2023-07-31T10:20:22;96403.59;;;21.47;57.55
3697;BME280;60662;48.810;8.872;2023-07-31T10:21:25;96404.47;;;21.57;57.64
3697;BME280;60662;48.810;8.872;2023-07-31T10:22:26;96412.28;;;21.49;57.29
3697;BME280;60662;48.810;8.872;2023-07-31T10:23:28;96410.34;;;21.51;56.78
3697;BME280;60662;48.810;8.872;2023-07-31T10:24:30;96410.03;;;21.44;57.24
3697;BME280;60662;48.810;8.872;2023-07-31T10:25:32;96405.34;;;21.28;58.19
3697;BME280;60662;48.810;8.872;2023-07-31T10:26:35;96405.47;;;21.07;57.79
3697;BME280;60662;48.810;8.872;2023-07-31T10:27:38;96397.06;;;20.92;57.74
3697;BME280;60662;48.810;8.872;2023-07-31T10:28:40;96394.56;;;20.91;57.84
3697;BME280;60662;48.810;8.872;2023-07-31T10:29:43;96392.88;;;21.39;57.24
3697;BME280;60662;48.810;8.872;2023-07-31T10:30:50;96386.78;;;21.85;55.68
3697;BME280;60662;48.810;8.872;2023-07-31T10:31:54;96383.56;;;22.20;56.20
3697;BME280;60662;48.810;8.872;2023-07-31T10:32:58;96387.16;;;22.00;56.58
3697;BME280;60662;48.810;8.872;2023-07-31T10:33:59;96385.03;;;21.66;56.33
3697;BME280;60662;48.810;8.872;2023-07-31T10:35:03;96390.50;;;21.65;56.57
3697;BME280;60662;48.810;8.872;2023-07-31T10:36:21;96387.16;;;22.00;55.40
3697;BME280;60662;48.810;8.872;2023-07-31T10:37:57;96378.38;;;22.18;55.61
3697;BME280;60662;48.810;8.872;2023-07-31T10:38:51;96389.50;;;22.31;55.22
3697;BME280;60662;48.810;8.872;2023-07-31T10:40:09;96389.94;;;22.37;54.54
3697;BME280;60662;48.810;8.872;2023-07-31T10:41:11;96385.72;;;22.34;54.53
3697;BME280;60662;48.810;8.872;2023-07-31T10:42:13;96389.28;;;22.53;53.63
3697;BME280;60662;48.810;8.872;2023-07-31T10:43:24;96387.06;;;22.48;54.77
3697;BME280;60662;48.810;8.872;2023-07-31T10:44:28;96390.22;;;22.33;53.89
3697;BME280;60662;48.810;8.872;2023-07-31T10:45:34;96387.59;;;22.24;54.94
3697;BME280;60662;48.810;8.872;2023-07-31T10:46:37;96378.19;;;22.29;55.15
3697;BME280;60662;48.810;8.872;2023-07-31T10:47:44;96385.25;;;22.48;54.95
3697;BME280;60662;48.810;8.872;2023-07-31T10:48:57;96389.28;;;22.25;54.93
3697;BME280;60662;48.810;8.872;2023-07-31T10:50:19;96387.03;;;21.92;54.59
3697;BME280;60662;48.810;8.872;2023-07-31T10:51:21;96387.81;;;22.02;54.94
3697;BME280;60662;48.810;8.872;2023-07-31T10:52:24;96372.78;;;21.83;55.51
3697;BME280;60662;48.810;8.872;2023-07-31T10:53:32;96382.16;;;22.15;56.13
3697;BME280;60662;48.810;8.872;2023-07-31T10:54:34;96386.53;;;22.07;55.22
3697;BME280;60662;48.810;8.872;2023-07-31T10:55:40;96381.97;;;22.27;55.42
3697;BME280;60662;48.810;8.872;2023-07-31T10:56:46;96381.66;;;22.40;54.93
3697;BME280;60662;48.810;8.872;2023-07-31T10:57:48;96373.03;;;22.56;53.85
3697;BME280;60662;48.810;8.872;2023-07-31T10:59:00;96378.66;;;22.89;54.02
3697;BME280;60662;48.810;8.872;2023-07-31T11:00:18;96380.28;;;22.99;53.63
3697;BME280;60662;48.810;8.872;2023-07-31T11:01:21;96375.09;;;22.34;53.32
3697;BME280;60662;48.810;8.872;2023-07-31T11:02:26;96392.56;;;22.09;53.83
3697;BME280;60662;48.810;8.872;2023-07-31T11:03:44;96397.97;;;21.89;55.37
3697;BME280;60662;48.810;8.872;2023-07-31T11:05:05;96379.41;;;21.60;55.08
3697;BME280;60662;48.810;8.872;2023-07-31T11:06:07;96380.81;;;21.54;56.28
3697;BME280;60662;48.810;8.872;2023-07-31T11:07:08;96379.88;;;21.55;56.34
3697;BME280;60662;48.810;8.872;2023-07-31T11:08:12;96377.75;;;21.49;56.89
3697;BME280;60662;48.810;8.872;2023-07-31T11:09:14;96387.56;;;21.39;56.12
3697;BME280;60662;48.810;8.872;2023-07-31T11:10:17;96390.94;;;21.11;55.94
3697;BME280;60662;48.810;8.872;2023-07-31T11:11:20;96384.53;;;21.04;56.75
3697;BME280;60662;48.810;8.872;2023-07-31T11:12:23;96387.16;;;20.84;56.69
3697;BME280;60662;48.810;8.872;2023-07-31T11:13:24;96381.53;;;20.68;56.18
3697;BME280;60662;48.810;8.872;2023-07-31T11:14:26;96389.34;;;20.60;57.00
3697;BME280;60662;48.810;8.872;2023-07-31T11:15:27;96385.44;;;20.64;57.28
3697;BME280;60662;48.810;8.872;2023-07-31T11:16:29;96387.44;;;20.71;57.66
3697;BME280;60662;48.810;8.872;2023-07-31T11:17:31;96383.25;;;20.88;57.04
3697;BME280;60662;48.810;8.872;2023-07-31T11:18:32;96387.03;;;20.96;57.24
3697;BME280;60662;48.810;8.872;2023-07-31T11:19:37;96384.09;;;21.09;57.40
3697;BME280;60662;48.810;8.872;2023-07-31T11:20:39;96383.81;;;21.12;57.23
3697;BME280;60662;48.810;8.872;2023-07-31T11:21:40;96380.97;;;21.43;57.54
3697;BME280;60662;48.810;8.872;2023-07-31T11:22:42;96387.28;;;21.61;56.44
3697;BME280;60662;48.810;8.872;2023-07-31T11:23:52;96378.75;;;21.38;56.67
3697;BME280;60662;48.810;8.872;2023-07-31T11:24:54;96376.63;;;21.51;57.28
3697;BME280;60662;48.810;8.872;2023-07-31T11:25:59;96371.91;;;21.55;56.01
3697;BME280;60662;48.810;8.872;2023-07-31T11:27:07;96369.22;;;21.65;55.88
3697;BME280;60662;48.810;8.872;2023-07-31T11:28:11;96365.91;;;21.91;56.55
3697;BME280;60662;48.810;8.872;2023-07-31T11:29:13;96369.41;;;21.91;55.36
3697;BME280;60662;48.810;8.872;2023-07-31T11:30:15;96367.44;;;21.93;55.88
3697;BME280;60662;48.810;8.872;2023-07-31T11:31:19;96369.25;;;21.55;55.73
3697;BME280;60662;48.810;8.872;2023-07-31T11:32:22;96371.03;;;21.54;56.31
3697;BME280;60662;48.810;8.872;2023-07-31T11:33:24;96359.16;;;21.49;56.30
3697;BME280;60662;48.810;8.872;2023-07-31T11:34:25;96365.31;;;21.49;56.25
3697;BME280;60662;48.810;8.872;2023-07-31T11:35:27;96364.44;;;21.68;56.80
3697;BME280;60662;48.810;8.872;2023-07-31T11:36:28;96370.59;;;21.79;56.37
3697;BME280;60662;48.810;8.872;2023-07-31T11:37:48;96365.94;;;21.81;56.62
3697;BME280;60662;48.810;8.872;2023-07-31T11:38:49;96365.66;;;21.84;56.77
3697;BME280;60662;48.810;8.872;2023-07-31T11:40:00;96355.91;;;21.75;56.37
3697;BME280;60662;48.810;8.872;2023-07-31T11:41:04;96359.66;;;21.82;57.25
3697;BME280;60662;48.810;8.872;2023-07-31T11:42:06;96357.94;;;21.91;55.69
3697;BME280;60662;48.810;8.872;2023-07-31T11:43:07;96364.16;;;21.81;56.43
3697;BME280;60662;48.810;8.872;2023-07-31T11:44:09;96353.72;;;21.60;56.79
3697;BME280;60662;48.810;8.872;2023-07-31T11:45:27;96360.84;;;21.40;57.41
3697;BME280;60662;48.810;8.872;2023-07-31T11:46:32;96353.72;;;21.41;57.33
3697;BME280;60662;48.810;8.872;2023-07-31T11:47:35;96357.88;;;21.53;57.63
3697;BME280;60662;48.810;8.872;2023-07-31T11:48:37;96353.00;;;21.58;57.50
3697;BME280;60662;48.810;8.872;2023-07-31T11:49:39;96361.59;;;21.80;57.82
3697;BME280;60662;48.810;8.872;2023-07-31T11:50:40;96361.78;;;21.68;56.74
3697;BME280;60662;48.810;8.872;2023-07-31T11:51:42;96357.59;;;21.66;57.59
3697;BME280;60662;48.810;8.872;2023-07-31T11:52:45;96340.69;;;21.67;57.75
3697;BME280;60662;48.810;8.872;2023-07-31T11:53:56;96339.72;;;21.58;56.61
3697;BME280;60662;48.810;8.872;2023-07-31T11:54:59;96346.44;;;21.62;56.59
3697;BME280;60662;48.810;8.872;2023-07-31T11:56:02;96336.28;;;21.28;57.04
3697;BME280;60662;48.810;8.872;2023-07-31T11:57:13;96344.69;;;21.24;57.74
3697;BME280;60662;48.810;8.872;2023-07-31T11:58:16;96350.91;;;21.52;58.41
3697;BME280;60662;48.810;8.872;2023-07-31T11:59:18;96340.97;;;21.54;57.93
3697;BME280;60662;48.810;8.872;2023-07-31T12:00:20;96349.91;;;21.73;57.38
3697;BME280;60662;48.810;8.872;2023-07-31T12:01:23;96344.84;;;21.79;56.58
3697;BME280;60662;48.810;8.872;2023-07-31T12:02:25;96339.16;;;21.64;55.99
3697;BME280;60662;48.810;8.872;2023-07-31T12:03:27;96336.09;;;21.59;55.37
3697;BME280;60662;48.810;8.872;2023-07-31T12:04:29;96335.53;;;21.56;56.56
3697;BME280;60662;48.810;8.872;2023-07-31T12:05:31;96334.56;;;21.47;56.25
3697;BME280;60662;48.810;8.872;2023-07-31T12:06:36;96336.53;;;21.45;56.61
3697;BME280;60662;48.810;8.872;2023-07-31T12:07:49;96338.75;;;21.49;56.93